sensor_id;sensor_type;location;lat;lon;timestamp;P1;durP1;ratioP1;P2;durP2;ratioP2
80936;SDS011;70395;51.382;7.074;2023-06-22T00:02:15;5.63;;;4.40;;
80936;SDS011;70395;51.382;7.074;2023-06-22T00:04:42;4.97;;;4.47;;
80936;SDS011;70395;51.382;7.074;2023-06-22T00:07:08;5.53;;;4.90;;
80936;SDS011;70395;51.382;7.074;2023-06-22T00:09:34;5.60;;;4.13;;
80936;SDS011;70395;51.382;7.074;2023-06-22T00:12:00;6.20;;;5.60;;
80936;SDS011;70395;51.382;7.074;2023-06-22T00:14:27;5.70;;;5.20;;
80936;SDS011;70395;51.382;7.074;2023-06-22T00:16:53;6.73;;;4.93;;
80936;SDS011;70395;51.382;7.074;2023-06-22T00:19:22;7.43;;;6.73;;
80936;SDS011;70395;51.382;7.074;2023-06-22T00:21:48;11.23;;;6.70;;
80936;SDS011;70395;51.382;7.074;2023-06-22T00:24:21;7.23;;;6.53;;
80936;SDS011;70395;51.382;7.074;2023-06-22T00:26:50;6.03;;;5.43;;
80936;SDS011;70395;51.382;7.074;2023-06-22T00:29:16;10.33;;;6.10;;
80936;SDS011;70395;51.382;7.074;2023-06-22T00:31:43;7.50;;;6.77;;
80936;SDS011;70395;51.382;7.074;2023-06-22T00:34:09;9.07;;;7.10;;
80936;SDS011;70395;51.382;7.074;2023-06-22T00:36:35;6.67;;;6.00;;
80936;SDS011;70395;51.382;7.074;2023-06-22T00:39:01;7.30;;;6.10;;
80936;SDS011;70395;51.382;7.074;2023-06-22T00:41:31;6.73;;;6.03;;
80936;SDS011;70395;51.382;7.074;2023-06-22T00:43:56;7.00;;;6.30;;
80936;SDS011;70395;51.382;7.074;2023-06-22T00:46:22;7.17;;;6.10;;
80936;SDS011;70395;51.382;7.074;2023-06-22T00:48:50;7.23;;;5.93;;
80936;SDS011;70395;51.382;7.074;2023-06-22T00:51:17;6.40;;;5.80;;
80936;SDS011;70395;51.382;7.074;2023-06-22T00:53:49;7.00;;;6.27;;
80936;SDS011;70395;51.382;7.074;2023-06-22T00:56:16;7.90;;;7.10;;
80936;SDS011;70395;51.382;7.074;2023-06-22T00:58:45;9.17;;;7.33;;
80936;SDS011;70395;51.382;7.074;2023-06-22T01:01:12;7.90;;;7.00;;
80936;SDS011;70395;51.382;7.074;2023-06-22T01:03:39;10.67;;;8.20;;
80936;SDS011;70395;51.382;7.074;2023-06-22T01:06:15;8.90;;;8.00;;
80936;SDS011;70395;51.382;7.074;2023-06-22T01:08:53;8.90;;;7.80;;
80936;SDS011;70395;51.382;7.074;2023-06-22T01:11:52;7.80;;;7.10;;
80936;SDS011;70395;51.382;7.074;2023-06-22T01:17:32;9.53;;;6.00;;
80936;SDS011;70395;51.382;7.074;2023-06-22T01:20:00;6.50;;;5.80;;
80936;SDS011;70395;51.382;7.074;2023-06-22T01:22:30;5.50;;;5.00;;
80936;SDS011;70395;51.382;7.074;2023-06-22T01:25:43;6.00;;;4.57;;
80936;SDS011;70395;51.382;7.074;2023-06-22T01:31:18;7.10;;;5.60;;
80936;SDS011;70395;51.382;7.074;2023-06-22T01:34:04;6.90;;;5.50;;
80936;SDS011;70395;51.382;7.074;2023-06-22T01:36:33;7.40;;;6.27;;
80936;SDS011;70395;51.382;7.074;2023-06-22T01:39:00;6.90;;;6.20;;
80936;SDS011;70395;51.382;7.074;2023-06-22T01:41:29;7.40;;;6.57;;
80936;SDS011;70395;51.382;7.074;2023-06-22T01:43:58;8.10;;;6.50;;
80936;SDS011;70395;51.382;7.074;2023-06-22T01:46:26;7.70;;;7.00;;
80936;SDS011;70395;51.382;7.074;2023-06-22T01:48:52;7.30;;;6.60;;
80936;SDS011;70395;51.382;7.074;2023-06-22T01:51:18;6.00;;;5.50;;
80936;SDS011;70395;51.382;7.074;2023-06-22T01:53:44;9.40;;;6.30;;
80936;SDS011;70395;51.382;7.074;2023-06-22T01:56:12;6.90;;;6.20;;
80936;SDS011;70395;51.382;7.074;2023-06-22T01:58:44;8.13;;;6.23;;
80936;SDS011;70395;51.382;7.074;2023-06-22T02:01:35;6.13;;;5.53;;
80936;SDS011;70395;51.382;7.074;2023-06-22T02:04:11;6.20;;;5.60;;
80936;SDS011;70395;51.382;7.074;2023-06-22T02:06:46;6.60;;;6.00;;
80936;SDS011;70395;51.382;7.074;2023-06-22T02:09:16;7.83;;;6.20;;
80936;SDS011;70395;51.382;7.074;2023-06-22T02:11:45;8.40;;;5.87;;
80936;SDS011;70395;51.382;7.074;2023-06-22T02:14:13;7.33;;;5.90;;
80936;SDS011;70395;51.382;7.074;2023-06-22T02:16:41;7.50;;;6.70;;
80936;SDS011;70395;51.382;7.074;2023-06-22T02:19:07;7.73;;;7.03;;
80936;SDS011;70395;51.382;7.074;2023-06-22T02:21:33;7.60;;;6.90;;
80936;SDS011;70395;51.382;7.074;2023-06-22T02:23:59;7.60;;;6.80;;
80936;SDS011;70395;51.382;7.074;2023-06-22T02:26:25;6.40;;;5.63;;
80936;SDS011;70395;51.382;7.074;2023-06-22T02:28:52;5.90;;;5.30;;
80936;SDS011;70395;51.382;7.074;2023-06-22T02:31:18;6.40;;;5.83;;
80936;SDS011;70395;51.382;7.074;2023-06-22T02:33:45;6.90;;;6.20;;
80936;SDS011;70395;51.382;7.074;2023-06-22T02:36:11;6.63;;;6.03;;
80936;SDS011;70395;51.382;7.074;2023-06-22T02:38:38;7.93;;;6.97;;
80936;SDS011;70395;51.382;7.074;2023-06-22T02:41:12;8.00;;;7.20;;
80936;SDS011;70395;51.382;7.074;2023-06-22T02:43:44;8.03;;;6.37;;
80936;SDS011;70395;51.382;7.074;2023-06-22T02:46:11;8.70;;;6.50;;
80936;SDS011;70395;51.382;7.074;2023-06-22T02:48:39;9.13;;;5.90;;
80936;SDS011;70395;51.382;7.074;2023-06-22T02:51:06;9.70;;;6.13;;
80936;SDS011;70395;51.382;7.074;2023-06-22T02:53:32;10.20;;;6.50;;
80936;SDS011;70395;51.382;7.074;2023-06-22T02:55:58;14.30;;;6.10;;
80936;SDS011;70395;51.382;7.074;2023-06-22T02:58:26;7.63;;;6.70;;
80936;SDS011;70395;51.382;7.074;2023-06-22T03:00:52;8.73;;;7.03;;
80936;SDS011;70395;51.382;7.074;2023-06-22T03:03:20;7.00;;;6.40;;
80936;SDS011;70395;51.382;7.074;2023-06-22T03:05:46;8.67;;;7.50;;
80936;SDS011;70395;51.382;7.074;2023-06-22T03:08:12;7.80;;;7.10;;
80936;SDS011;70395;51.382;7.074;2023-06-22T03:10:37;9.77;;;8.50;;
80936;SDS011;70395;51.382;7.074;2023-06-22T03:13:03;8.57;;;6.43;;
80936;SDS011;70395;51.382;7.074;2023-06-22T03:15:29;11.50;;;10.30;;
80936;SDS011;70395;51.382;7.074;2023-06-22T03:17:56;9.10;;;8.10;;
80936;SDS011;70395;51.382;7.074;2023-06-22T03:20:22;10.27;;;9.27;;
80936;SDS011;70395;51.382;7.074;2023-06-22T03:22:48;10.70;;;8.13;;
80936;SDS011;70395;51.382;7.074;2023-06-22T03:25:14;9.90;;;8.47;;
80936;SDS011;70395;51.382;7.074;2023-06-22T03:27:40;9.50;;;8.50;;
80936;SDS011;70395;51.382;7.074;2023-06-22T03:30:09;10.10;;;9.20;;
80936;SDS011;70395;51.382;7.074;2023-06-22T03:32:37;11.03;;;9.17;;
80936;SDS011;70395;51.382;7.074;2023-06-22T03:35:03;11.07;;;8.57;;
80936;SDS011;70395;51.382;7.074;2023-06-22T03:37:31;8.47;;;7.67;;
80936;SDS011;70395;51.382;7.074;2023-06-22T03:39:56;10.90;;;8.60;;
80936;SDS011;70395;51.382;7.074;2023-06-22T03:42:22;9.37;;;7.80;;
80936;SDS011;70395;51.382;7.074;2023-06-22T03:44:48;11.67;;;9.20;;
80936;SDS011;70395;51.382;7.074;2023-06-22T03:47:14;9.67;;;8.77;;
80936;SDS011;70395;51.382;7.074;2023-06-22T03:49:40;14.83;;;9.83;;
80936;SDS011;70395;51.382;7.074;2023-06-22T03:52:05;9.50;;;8.50;;
80936;SDS011;70395;51.382;7.074;2023-06-22T03:54:32;7.60;;;6.70;;
80936;SDS011;70395;51.382;7.074;2023-06-22T03:56:57;12.50;;;8.40;;
80936;SDS011;70395;51.382;7.074;2023-06-22T03:59:24;7.33;;;6.63;;
80936;SDS011;70395;51.382;7.074;2023-06-22T04:01:50;7.97;;;7.17;;
80936;SDS011;70395;51.382;7.074;2023-06-22T04:04:17;8.13;;;7.47;;
80936;SDS011;70395;51.382;7.074;2023-06-22T04:06:43;12.13;;;11.03;;
80936;SDS011;70395;51.382;7.074;2023-06-22T04:09:09;13.37;;;12.07;;
80936;SDS011;70395;51.382;7.074;2023-06-22T04:11:35;11.40;;;10.30;;
80936;SDS011;70395;51.382;7.074;2023-06-22T04:14:00;10.10;;;8.80;;
80936;SDS011;70395;51.382;7.074;2023-06-22T04:16:26;10.83;;;9.30;;
80936;SDS011;70395;51.382;7.074;2023-06-22T04:18:52;10.93;;;9.83;;
80936;SDS011;70395;51.382;7.074;2023-06-22T04:21:18;9.13;;;8.33;;
80936;SDS011;70395;51.382;7.074;2023-06-22T04:23:46;12.97;;;11.70;;
80936;SDS011;70395;51.382;7.074;2023-06-22T04:26:13;12.53;;;10.17;;
80936;SDS011;70395;51.382;7.074;2023-06-22T04:28:39;15.83;;;14.20;;
80936;SDS011;70395;51.382;7.074;2023-06-22T04:31:06;12.20;;;10.90;;
80936;SDS011;70395;51.382;7.074;2023-06-22T04:33:31;14.57;;;12.97;;
80936;SDS011;70395;51.382;7.074;2023-06-22T04:35:58;15.50;;;13.83;;
80936;SDS011;70395;51.382;7.074;2023-06-22T04:38:26;18.60;;;13.10;;
80936;SDS011;70395;51.382;7.074;2023-06-22T04:40:52;13.50;;;12.20;;
80936;SDS011;70395;51.382;7.074;2023-06-22T04:43:18;13.70;;;12.30;;
80936;SDS011;70395;51.382;7.074;2023-06-22T04:45:45;13.30;;;11.20;;
80936;SDS011;70395;51.382;7.074;2023-06-22T04:48:10;16.83;;;11.20;;
80936;SDS011;70395;51.382;7.074;2023-06-22T04:50:41;16.80;;;12.10;;
80936;SDS011;70395;51.382;7.074;2023-06-22T04:53:07;11.97;;;10.63;;
80936;SDS011;70395;51.382;7.074;2023-06-22T04:55:34;11.10;;;8.87;;
80936;SDS011;70395;51.382;7.074;2023-06-22T04:58:03;12.10;;;10.70;;
80936;SDS011;70395;51.382;7.074;2023-06-22T05:00:30;12.90;;;11.60;;
80936;SDS011;70395;51.382;7.074;2023-06-22T05:02:56;13.50;;;12.07;;
80936;SDS011;70395;51.382;7.074;2023-06-22T05:05:23;12.37;;;11.07;;
80936;SDS011;70395;51.382;7.074;2023-06-22T05:07:50;12.00;;;10.80;;
80936;SDS011;70395;51.382;7.074;2023-06-22T05:10:18;12.70;;;11.50;;
80936;SDS011;70395;51.382;7.074;2023-06-22T05:12:45;15.43;;;11.90;;
80936;SDS011;70395;51.382;7.074;2023-06-22T05:15:12;14.00;;;12.80;;
80936;SDS011;70395;51.382;7.074;2023-06-22T05:17:38;14.97;;;13.27;;
80936;SDS011;70395;51.382;7.074;2023-06-22T05:20:10;16.40;;;14.23;;
80936;SDS011;70395;51.382;7.074;2023-06-22T05:22:37;13.33;;;12.07;;
80936;SDS011;70395;51.382;7.074;2023-06-22T05:25:05;15.50;;;13.90;;
80936;SDS011;70395;51.382;7.074;2023-06-22T05:27:34;15.57;;;12.90;;
80936;SDS011;70395;51.382;7.074;2023-06-22T05:30:04;15.83;;;14.23;;
80936;SDS011;70395;51.382;7.074;2023-06-22T05:32:35;14.10;;;12.83;;
80936;SDS011;70395;51.382;7.074;2023-06-22T05:35:01;14.47;;;12.97;;
80936;SDS011;70395;51.382;7.074;2023-06-22T05:37:29;15.80;;;14.13;;
80936;SDS011;70395;51.382;7.074;2023-06-22T05:39:54;14.60;;;13.30;;
80936;SDS011;70395;51.382;7.074;2023-06-22T05:42:22;13.83;;;12.13;;
80936;SDS011;70395;51.382;7.074;2023-06-22T05:44:48;13.97;;;12.57;;
80936;SDS011;70395;51.382;7.074;2023-06-22T05:47:14;14.00;;;12.70;;
80936;SDS011;70395;51.382;7.074;2023-06-22T05:49:40;14.90;;;12.13;;
80936;SDS011;70395;51.382;7.074;2023-06-22T05:52:06;14.70;;;12.20;;
80936;SDS011;70395;51.382;7.074;2023-06-22T05:54:32;15.50;;;13.90;;
80936;SDS011;70395;51.382;7.074;2023-06-22T05:56:58;14.00;;;12.70;;
80936;SDS011;70395;51.382;7.074;2023-06-22T05:59:24;13.67;;;12.37;;
80936;SDS011;70395;51.382;7.074;2023-06-22T06:01:50;15.53;;;13.93;;
80936;SDS011;70395;51.382;7.074;2023-06-22T06:04:16;14.57;;;13.07;;
80936;SDS011;70395;51.382;7.074;2023-06-22T06:06:43;15.53;;;13.93;;
80936;SDS011;70395;51.382;7.074;2023-06-22T06:09:10;17.70;;;13.10;;
80936;SDS011;70395;51.382;7.074;2023-06-22T06:11:36;14.27;;;12.87;;
80936;SDS011;70395;51.382;7.074;2023-06-22T06:14:03;16.73;;;14.73;;
80936;SDS011;70395;51.382;7.074;2023-06-22T06:16:29;14.63;;;13.23;;
80936;SDS011;70395;51.382;7.074;2023-06-22T06:18:54;15.90;;;14.40;;
80936;SDS011;70395;51.382;7.074;2023-06-22T06:21:21;18.63;;;16.93;;
80936;SDS011;70395;51.382;7.074;2023-06-22T06:23:47;17.13;;;15.50;;
80936;SDS011;70395;51.382;7.074;2023-06-22T06:26:13;14.53;;;13.27;;
80936;SDS011;70395;51.382;7.074;2023-06-22T06:28:41;16.63;;;15.03;;
80936;SDS011;70395;51.382;7.074;2023-06-22T06:31:08;18.97;;;16.97;;
80936;SDS011;70395;51.382;7.074;2023-06-22T06:33:34;19.33;;;17.17;;
80936;SDS011;70395;51.382;7.074;2023-06-22T06:36:01;18.63;;;16.93;;
80936;SDS011;70395;51.382;7.074;2023-06-22T06:38:29;21.50;;;16.73;;
80936;SDS011;70395;51.382;7.074;2023-06-22T06:40:55;19.93;;;18.03;;
80936;SDS011;70395;51.382;7.074;2023-06-22T06:43:21;17.40;;;15.80;;
80936;SDS011;70395;51.382;7.074;2023-06-22T06:45:48;19.27;;;17.27;;
80936;SDS011;70395;51.382;7.074;2023-06-22T06:48:14;19.67;;;17.70;;
80936;SDS011;70395;51.382;7.074;2023-06-22T06:50:40;19.07;;;17.17;;
80936;SDS011;70395;51.382;7.074;2023-06-22T06:53:06;19.73;;;17.67;;
80936;SDS011;70395;51.382;7.074;2023-06-22T06:55:31;19.80;;;17.70;;
80936;SDS011;70395;51.382;7.074;2023-06-22T06:58:01;21.30;;;19.00;;
80936;SDS011;70395;51.382;7.074;2023-06-22T07:00:29;19.10;;;17.23;;
80936;SDS011;70395;51.382;7.074;2023-06-22T07:02:55;22.30;;;17.10;;
80936;SDS011;70395;51.382;7.074;2023-06-22T07:05:20;18.57;;;16.57;;
80936;SDS011;70395;51.382;7.074;2023-06-22T07:07:46;18.00;;;16.10;;
80936;SDS011;70395;51.382;7.074;2023-06-22T07:10:12;21.50;;;17.07;;
80936;SDS011;70395;51.382;7.074;2023-06-22T07:12:38;14.87;;;13.50;;
80936;SDS011;70395;51.382;7.074;2023-06-22T07:15:04;17.40;;;15.90;;
80936;SDS011;70395;51.382;7.074;2023-06-22T07:17:39;18.87;;;16.97;;
80936;SDS011;70395;51.382;7.074;2023-06-22T07:20:06;20.27;;;18.40;;
80936;SDS011;70395;51.382;7.074;2023-06-22T07:22:39;20.40;;;18.50;;
80936;SDS011;70395;51.382;7.074;2023-06-22T07:25:07;20.60;;;18.70;;
80936;SDS011;70395;51.382;7.074;2023-06-22T07:27:38;21.43;;;19.43;;
80936;SDS011;70395;51.382;7.074;2023-06-22T07:30:22;19.90;;;17.87;;
80936;SDS011;70395;51.382;7.074;2023-06-22T07:32:48;20.43;;;18.63;;
80936;SDS011;70395;51.382;7.074;2023-06-22T07:35:14;19.37;;;17.57;;
80936;SDS011;70395;51.382;7.074;2023-06-22T07:37:41;19.97;;;17.97;;
80936;SDS011;70395;51.382;7.074;2023-06-22T07:40:08;20.03;;;18.20;;
80936;SDS011;70395;51.382;7.074;2023-06-22T07:42:35;20.37;;;18.40;;
80936;SDS011;70395;51.382;7.074;2023-06-22T07:45:01;20.03;;;18.23;;
80936;SDS011;70395;51.382;7.074;2023-06-22T07:47:36;20.43;;;18.37;;
80936;SDS011;70395;51.382;7.074;2023-06-22T07:50:02;20.07;;;18.20;;
80936;SDS011;70395;51.382;7.074;2023-06-22T07:52:29;22.47;;;20.27;;
80936;SDS011;70395;51.382;7.074;2023-06-22T07:54:55;19.80;;;18.00;;
80936;SDS011;70395;51.382;7.074;2023-06-22T07:57:21;22.13;;;19.97;;
80936;SDS011;70395;51.382;7.074;2023-06-22T07:59:47;21.70;;;19.43;;
80936;SDS011;70395;51.382;7.074;2023-06-22T08:02:12;21.90;;;19.83;;
80936;SDS011;70395;51.382;7.074;2023-06-22T08:04:39;21.67;;;19.47;;
80936;SDS011;70395;51.382;7.074;2023-06-22T08:07:06;21.80;;;19.80;;
80936;SDS011;70395;51.382;7.074;2023-06-22T08:09:32;20.20;;;18.30;;
80936;SDS011;70395;51.382;7.074;2023-06-22T08:11:59;19.00;;;17.30;;
80936;SDS011;70395;51.382;7.074;2023-06-22T08:14:25;23.37;;;20.50;;
80936;SDS011;70395;51.382;7.074;2023-06-22T08:16:52;25.10;;;22.50;;
80936;SDS011;70395;51.382;7.074;2023-06-22T08:19:17;21.07;;;19.07;;
80936;SDS011;70395;51.382;7.074;2023-06-22T08:21:43;23.20;;;21.00;;
80936;SDS011;70395;51.382;7.074;2023-06-22T08:24:09;25.20;;;22.50;;
80936;SDS011;70395;51.382;7.074;2023-06-22T08:26:35;20.87;;;18.90;;
80936;SDS011;70395;51.382;7.074;2023-06-22T08:29:05;22.03;;;19.80;;
80936;SDS011;70395;51.382;7.074;2023-06-22T08:31:31;22.37;;;20.27;;
80936;SDS011;70395;51.382;7.074;2023-06-22T08:33:59;22.27;;;20.27;;
80936;SDS011;70395;51.382;7.074;2023-06-22T08:36:25;20.00;;;18.17;;
80936;SDS011;70395;51.382;7.074;2023-06-22T08:38:54;20.97;;;18.97;;
80936;SDS011;70395;51.382;7.074;2023-06-22T08:41:22;22.07;;;20.07;;
80936;SDS011;70395;51.382;7.074;2023-06-22T08:43:49;22.57;;;20.47;;
80936;SDS011;70395;51.382;7.074;2023-06-22T08:46:14;22.70;;;20.40;;
80936;SDS011;70395;51.382;7.074;2023-06-22T08:48:45;21.67;;;19.50;;
80936;SDS011;70395;51.382;7.074;2023-06-22T08:51:10;23.30;;;21.10;;
80936;SDS011;70395;51.382;7.074;2023-06-22T08:53:36;23.97;;;21.87;;
80936;SDS011;70395;51.382;7.074;2023-06-22T08:56:02;21.20;;;19.20;;
80936;SDS011;70395;51.382;7.074;2023-06-22T08:58:28;21.33;;;19.53;;
80936;SDS011;70395;51.382;7.074;2023-06-22T09:00:53;21.87;;;19.70;;
80936;SDS011;70395;51.382;7.074;2023-06-22T09:03:19;21.57;;;19.37;;
80936;SDS011;70395;51.382;7.074;2023-06-22T09:05:45;20.20;;;18.27;;
80936;SDS011;70395;51.382;7.074;2023-06-22T09:08:11;19.70;;;17.80;;
80936;SDS011;70395;51.382;7.074;2023-06-22T09:10:37;23.40;;;19.83;;
80936;SDS011;70395;51.382;7.074;2023-06-22T09:13:02;21.20;;;19.00;;
80936;SDS011;70395;51.382;7.074;2023-06-22T09:15:28;22.30;;;20.37;;
80936;SDS011;70395;51.382;7.074;2023-06-22T09:17:54;20.67;;;18.87;;
80936;SDS011;70395;51.382;7.074;2023-06-22T09:20:20;20.00;;;18.10;;
80936;SDS011;70395;51.382;7.074;2023-06-22T09:22:46;20.13;;;18.07;;
80936;SDS011;70395;51.382;7.074;2023-06-22T09:25:12;19.83;;;17.97;;
80936;SDS011;70395;51.382;7.074;2023-06-22T09:27:38;18.70;;;17.00;;
80936;SDS011;70395;51.382;7.074;2023-06-22T09:30:04;19.53;;;17.60;;
80936;SDS011;70395;51.382;7.074;2023-06-22T09:32:31;19.83;;;18.10;;
80936;SDS011;70395;51.382;7.074;2023-06-22T09:34:57;18.90;;;17.20;;
80936;SDS011;70395;51.382;7.074;2023-06-22T09:37:23;18.37;;;15.07;;
80936;SDS011;70395;51.382;7.074;2023-06-22T09:39:48;16.50;;;14.77;;
80936;SDS011;70395;51.382;7.074;2023-06-22T09:42:14;16.87;;;15.37;;
80936;SDS011;70395;51.382;7.074;2023-06-22T09:44:40;15.83;;;14.23;;
80936;SDS011;70395;51.382;7.074;2023-06-22T09:47:06;14.57;;;13.27;;
80936;SDS011;70395;51.382;7.074;2023-06-22T09:49:32;14.93;;;13.73;;
80936;SDS011;70395;51.382;7.074;2023-06-22T09:51:58;16.50;;;15.20;;
80936;SDS011;70395;51.382;7.074;2023-06-22T09:54:23;15.00;;;13.60;;
80936;SDS011;70395;51.382;7.074;2023-06-22T09:56:49;15.57;;;14.20;;
80936;SDS011;70395;51.382;7.074;2023-06-22T09:59:15;15.80;;;14.20;;
80936;SDS011;70395;51.382;7.074;2023-06-22T10:01:41;15.30;;;14.00;;
80936;SDS011;70395;51.382;7.074;2023-06-22T10:04:06;17.67;;;16.17;;
80936;SDS011;70395;51.382;7.074;2023-06-22T10:06:32;17.37;;;15.67;;
80936;SDS011;70395;51.382;7.074;2023-06-22T10:08:58;16.60;;;15.20;;
80936;SDS011;70395;51.382;7.074;2023-06-22T10:11:24;15.70;;;14.30;;
80936;SDS011;70395;51.382;7.074;2023-06-22T10:13:55;17.20;;;15.80;;
80936;SDS011;70395;51.382;7.074;2023-06-22T10:16:23;16.23;;;14.50;;
80936;SDS011;70395;51.382;7.074;2023-06-22T10:18:55;16.10;;;14.70;;
80936;SDS011;70395;51.382;7.074;2023-06-22T10:21:21;16.37;;;14.77;;
80936;SDS011;70395;51.382;7.074;2023-06-22T10:23:47;19.07;;;17.17;;
80936;SDS011;70395;51.382;7.074;2023-06-22T10:26:13;17.07;;;15.57;;
80936;SDS011;70395;51.382;7.074;2023-06-22T10:28:38;16.40;;;14.90;;
80936;SDS011;70395;51.382;7.074;2023-06-22T10:31:04;16.37;;;14.90;;
80936;SDS011;70395;51.382;7.074;2023-06-22T10:33:30;15.80;;;14.50;;
80936;SDS011;70395;51.382;7.074;2023-06-22T10:35:56;17.77;;;16.30;;
80936;SDS011;70395;51.382;7.074;2023-06-22T10:38:21;14.57;;;13.27;;
80936;SDS011;70395;51.382;7.074;2023-06-22T10:40:47;16.37;;;14.60;;
80936;SDS011;70395;51.382;7.074;2023-06-22T10:43:13;15.13;;;13.70;;
80936;SDS011;70395;51.382;7.074;2023-06-22T10:45:39;14.33;;;13.03;;
80936;SDS011;70395;51.382;7.074;2023-06-22T10:48:05;13.20;;;12.10;;
80936;SDS011;70395;51.382;7.074;2023-06-22T10:50:30;13.80;;;12.63;;
80936;SDS011;70395;51.382;7.074;2023-06-22T10:52:57;13.10;;;11.90;;
80936;SDS011;70395;51.382;7.074;2023-06-22T10:55:23;11.00;;;10.00;;
80936;SDS011;70395;51.382;7.074;2023-06-22T10:57:49;10.30;;;9.40;;
80936;SDS011;70395;51.382;7.074;2023-06-22T11:00:15;11.10;;;10.00;;
80936;SDS011;70395;51.382;7.074;2023-06-22T11:02:41;11.07;;;10.07;;
80936;SDS011;70395;51.382;7.074;2023-06-22T11:05:08;12.17;;;9.10;;
80936;SDS011;70395;51.382;7.074;2023-06-22T11:07:34;12.00;;;10.90;;
80936;SDS011;70395;51.382;7.074;2023-06-22T11:09:59;11.47;;;10.37;;
80936;SDS011;70395;51.382;7.074;2023-06-22T11:12:25;10.80;;;9.80;;
80936;SDS011;70395;51.382;7.074;2023-06-22T11:14:51;14.33;;;11.97;;
80936;SDS011;70395;51.382;7.074;2023-06-22T11:17:17;12.37;;;11.27;;
80936;SDS011;70395;51.382;7.074;2023-06-22T11:19:44;14.30;;;12.80;;
80936;SDS011;70395;51.382;7.074;2023-06-22T11:22:10;13.83;;;11.53;;
80936;SDS011;70395;51.382;7.074;2023-06-22T11:24:35;12.37;;;11.07;;
80936;SDS011;70395;51.382;7.074;2023-06-22T11:27:01;17.30;;;14.37;;
80936;SDS011;70395;51.382;7.074;2023-06-22T11:29:27;17.57;;;15.87;;
80936;SDS011;70395;51.382;7.074;2023-06-22T11:31:53;16.20;;;14.63;;
80936;SDS011;70395;51.382;7.074;2023-06-22T11:34:19;17.57;;;13.80;;
80936;SDS011;70395;51.382;7.074;2023-06-22T11:36:44;16.83;;;15.07;;
80936;SDS011;70395;51.382;7.074;2023-06-22T11:39:10;17.77;;;16.00;;
80936;SDS011;70395;51.382;7.074;2023-06-22T11:41:39;19.50;;;17.30;;
80936;SDS011;70395;51.382;7.074;2023-06-22T11:44:04;17.47;;;15.87;;
80936;SDS011;70395;51.382;7.074;2023-06-22T11:46:30;19.00;;;17.30;;
80936;SDS011;70395;51.382;7.074;2023-06-22T11:48:57;19.97;;;17.97;;
80936;SDS011;70395;51.382;7.074;2023-06-22T11:51:23;20.10;;;16.50;;
80936;SDS011;70395;51.382;7.074;2023-06-22T11:53:49;16.87;;;15.17;;
80936;SDS011;70395;51.382;7.074;2023-06-22T11:56:15;18.30;;;16.67;;
80936;SDS011;70395;51.382;7.074;2023-06-22T11:58:41;19.13;;;17.30;;
80936;SDS011;70395;51.382;7.074;2023-06-22T12:01:06;25.77;;;20.50;;
80936;SDS011;70395;51.382;7.074;2023-06-22T12:03:32;21.37;;;19.10;;
80936;SDS011;70395;51.382;7.074;2023-06-22T12:05:59;23.30;;;20.00;;
80936;SDS011;70395;51.382;7.074;2023-06-22T12:08:25;19.60;;;17.70;;
80936;SDS011;70395;51.382;7.074;2023-06-22T12:10:51;19.23;;;17.20;;
80936;SDS011;70395;51.382;7.074;2023-06-22T12:13:18;22.57;;;18.00;;
80936;SDS011;70395;51.382;7.074;2023-06-22T12:15:44;22.70;;;19.73;;
80936;SDS011;70395;51.382;7.074;2023-06-22T12:18:10;21.43;;;19.40;;
80936;SDS011;70395;51.382;7.074;2023-06-22T12:20:36;21.63;;;19.57;;
80936;SDS011;70395;51.382;7.074;2023-06-22T12:23:02;20.40;;;18.60;;
80936;SDS011;70395;51.382;7.074;2023-06-22T12:25:28;21.40;;;19.57;;
80936;SDS011;70395;51.382;7.074;2023-06-22T12:27:53;23.20;;;19.90;;
80936;SDS011;70395;51.382;7.074;2023-06-22T12:30:20;23.83;;;21.50;;
80936;SDS011;70395;51.382;7.074;2023-06-22T12:32:45;24.13;;;21.77;;
80936;SDS011;70395;51.382;7.074;2023-06-22T12:35:11;22.97;;;20.87;;
80936;SDS011;70395;51.382;7.074;2023-06-22T12:37:41;27.43;;;24.63;;
80936;SDS011;70395;51.382;7.074;2023-06-22T12:40:08;27.67;;;25.03;;
80936;SDS011;70395;51.382;7.074;2023-06-22T12:42:35;29.30;;;26.47;;
80936;SDS011;70395;51.382;7.074;2023-06-22T12:45:00;26.20;;;23.53;;
80936;SDS011;70395;51.382;7.074;2023-06-22T12:47:26;29.27;;;26.37;;
80936;SDS011;70395;51.382;7.074;2023-06-22T12:49:52;29.77;;;26.83;;
80936;SDS011;70395;51.382;7.074;2023-06-22T12:52:18;31.67;;;28.50;;
80936;SDS011;70395;51.382;7.074;2023-06-22T12:54:44;30.70;;;27.70;;
80936;SDS011;70395;51.382;7.074;2023-06-22T12:57:09;33.80;;;30.37;;
80936;SDS011;70395;51.382;7.074;2023-06-22T12:59:35;31.67;;;28.40;;
80936;SDS011;70395;51.382;7.074;2023-06-22T13:02:01;29.27;;;26.13;;
80936;SDS011;70395;51.382;7.074;2023-06-22T13:04:27;29.33;;;26.47;;
80936;SDS011;70395;51.382;7.074;2023-06-22T13:06:53;27.10;;;24.53;;
80936;SDS011;70395;51.382;7.074;2023-06-22T13:09:19;28.60;;;26.10;;
80936;SDS011;70395;51.382;7.074;2023-06-22T13:11:45;27.70;;;25.07;;
80936;SDS011;70395;51.382;7.074;2023-06-22T13:14:11;25.97;;;23.50;;
80936;SDS011;70395;51.382;7.074;2023-06-22T13:16:37;25.90;;;23.30;;
80936;SDS011;70395;51.382;7.074;2023-06-22T13:19:02;23.73;;;21.37;;
80936;SDS011;70395;51.382;7.074;2023-06-22T13:21:29;21.37;;;19.43;;
80936;SDS011;70395;51.382;7.074;2023-06-22T13:23:56;20.40;;;18.37;;
80936;SDS011;70395;51.382;7.074;2023-06-22T13:26:21;21.77;;;19.60;;
80936;SDS011;70395;51.382;7.074;2023-06-22T13:28:47;20.07;;;18.27;;
80936;SDS011;70395;51.382;7.074;2023-06-22T13:31:13;19.70;;;18.00;;
80936;SDS011;70395;51.382;7.074;2023-06-22T13:33:39;19.83;;;18.03;;
80936;SDS011;70395;51.382;7.074;2023-06-22T13:36:05;18.73;;;16.83;;
80936;SDS011;70395;51.382;7.074;2023-06-22T13:38:32;19.20;;;17.40;;
80936;SDS011;70395;51.382;7.074;2023-06-22T13:41:03;17.83;;;16.13;;
80936;SDS011;70395;51.382;7.074;2023-06-22T13:43:30;17.97;;;16.27;;
80936;SDS011;70395;51.382;7.074;2023-06-22T13:45:56;21.70;;;16.47;;
80936;SDS011;70395;51.382;7.074;2023-06-22T13:48:22;16.97;;;15.40;;
80936;SDS011;70395;51.382;7.074;2023-06-22T13:50:48;18.30;;;16.60;;
80936;SDS011;70395;51.382;7.074;2023-06-22T13:53:14;16.87;;;15.37;;
80936;SDS011;70395;51.382;7.074;2023-06-22T13:55:40;16.17;;;14.77;;
80936;SDS011;70395;51.382;7.074;2023-06-22T13:58:06;17.13;;;15.53;;
80936;SDS011;70395;51.382;7.074;2023-06-22T14:00:32;16.90;;;15.40;;
80936;SDS011;70395;51.382;7.074;2023-06-22T14:02:58;17.50;;;16.00;;
80936;SDS011;70395;51.382;7.074;2023-06-22T14:05:24;16.53;;;15.03;;
80936;SDS011;70395;51.382;7.074;2023-06-22T14:07:49;16.70;;;15.20;;
80936;SDS011;70395;51.382;7.074;2023-06-22T14:10:15;17.90;;;16.40;;
80936;SDS011;70395;51.382;7.074;2023-06-22T14:12:41;18.50;;;16.20;;
80936;SDS011;70395;51.382;7.074;2023-06-22T14:15:07;17.70;;;16.07;;
80936;SDS011;70395;51.382;7.074;2023-06-22T14:17:33;17.17;;;15.60;;
80936;SDS011;70395;51.382;7.074;2023-06-22T14:19:59;16.47;;;15.03;;
80936;SDS011;70395;51.382;7.074;2023-06-22T14:22:24;16.03;;;14.60;;
80936;SDS011;70395;51.382;7.074;2023-06-22T14:24:52;17.67;;;16.03;;
80936;SDS011;70395;51.382;7.074;2023-06-22T14:27:17;18.67;;;16.93;;
80936;SDS011;70395;51.382;7.074;2023-06-22T14:29:43;18.40;;;16.77;;
80936;SDS011;70395;51.382;7.074;2023-06-22T14:32:09;18.00;;;16.30;;
80936;SDS011;70395;51.382;7.074;2023-06-22T14:34:35;17.30;;;15.80;;